Terminal Aerodrome Forecast
Issued by NWS

Home | Current Version | Previous Version | Text Only | Print | Product List | Glossary On
Versions: 1 2 3 4 5 6 7 8 9 10 11 12 13 14 15 16 17 18 19 20 21 22 23 24 25 26 27 28 29 30
671
FTUS43 KDLH 150530
TAFHIB
TAF
KHIB 150530Z 1506/1606 00000KT 1SM BR SKC
      TEMPO 1508/1512 00000KT 1/2SM FG BKN003
     FM151300 00000KT 3SM BR BKN006
     FM151500 11004KT P6SM SCT120
     FM152200 16006KT P6SM BKN110=

USA.gov is the U.S. government's official web portal to all federal, state and local government web resources and services.